e-Mail: Password: Lost your password? Click here. - Register a new user

c h a v e z j u a r e z . c o m

Weather - Tiempo - Wetter - Temps

METAR DATA MMMX (Mexico City)

Mexico City / Licenci, Mexico (MMMX) 19-26N 099-06W
Jun 22, 2018 - 01:53 PM EDT / 2018.06.22 1753 UTC
Wind: from the ESE (110 degrees) at 3 MPH (3 KT):0
Visibility: 12 mile(s):0
Sky conditions: partly cloudy
Temperature: 71 F (22 C)
Dew Point: 46 F (8 C)
Relative Humidity: 40%
Pressure (altimeter): 30.29 in. Hg (1025 hPa)
Pressure tendency: 0.03 inches (0.9 hPa) lower than three hours ago
ob: MMMX 221753Z 11003KT 12SM FEW025 SCT250 22/08 A3029 NOSIG RMK SLP080 57009 907 8/201
cycle: 18

Mexico City

St. Prex




Current weather alarms for Switzerland


www.wetteralarm.ch